Time;durP1;ratioP1;P1;durP2;ratioP2;P2;SDS_P1;SDS_P2;PMS_P1;PMS_P2;Temp;Humidity;BMP_temperature;BMP_pressure;BME280_temperature;BME280_humidity;BME280_pressure;Samples;Min_cycle;Max_cycle;Signal;HPM_P1;HPM_P2
2022/12/04 00:02:18;;;;;;;17.23;10.48;;;;;;;6.08;80.15;96095.06;5054403;28;20037;-84
2022/12/04 00:04:44;;;;;;;19.33;11.10;;;;;;;5.84;80.05;96038.81;5042728;28;20738;-85
2022/12/04 00:07:09;;;;;;;19.27;11.38;;;;;;;5.52;79.98;96001.38;5033053;28;20132;-85
2022/12/04 00:09:35;;;;;;;18.70;11.65;;;;;;;5.62;80.20;96049.03;5039770;28;20511;-84
2022/12/04 00:12:00;;;;;;;20.45;11.70;;;;;;;5.89;80.31;96077.66;5039521;28;20037;-85
2022/12/04 00:14:26;;;;;;;16.42;10.82;;;;;;;5.33;79.87;95974.28;5021124;28;20053;-83
2022/12/04 00:16:51;;;;;;;21.65;10.98;;;;;;;5.53;79.93;96013.50;5020947;28;20854;-85
2022/12/04 00:19:17;;;;;;;17.50;10.77;;;;;;;5.77;79.78;96043.38;5039539;28;20055;-85
2022/12/04 00:21:44;;;;;;;20.33;11.82;;;;;;;5.92;79.63;96077.22;5039376;28;20087;-85
2022/12/04 00:24:09;;;;;;;17.80;10.15;;;;;;;5.87;79.70;96079.69;5040058;28;20047;-85
2022/12/04 00:26:34;;;;;;;17.50;10.63;;;;;;;5.77;80.06;96064.44;5039462;28;20036;-85
2022/12/04 00:29:00;;;;;;;19.25;10.88;;;;;;;5.71;79.32;96052.16;5038874;28;20032;-84
2022/12/04 00:31:27;;;;;;;16.98;10.35;;;;;;;6.17;79.82;96128.75;5039034;28;20079;-82
2022/12/04 00:33:54;;;;;;;15.40;10.25;;;;;;;5.63;79.39;96026.13;5039230;28;20044;-83
2022/12/04 00:36:22;;;;;;;15.70;8.65;;;;;;;6.10;79.38;96106.16;5039195;28;20106;-81
2022/12/04 00:38:48;;;;;;;19.05;9.35;;;;;;;5.29;79.20;95991.53;5039226;28;20098;-84
2022/12/04 00:41:21;;;;;;;15.52;9.60;;;;;;;6.31;79.08;96152.28;5039143;28;20091;-83
2022/12/04 00:43:47;;;;;;;13.60;8.93;;;;;;;6.26;78.63;96144.22;5021065;28;20041;-82
2022/12/04 00:46:13;;;;;;;16.02;9.25;;;;;;;5.53;78.97;96033.75;5054043;28;20103;-83
2022/12/04 00:48:39;;;;;;;14.23;9.18;;;;;;;5.14;79.10;95970.06;5038231;28;20060;-84
2022/12/04 00:51:08;;;;;;;14.77;9.23;;;;;;;4.32;78.99;95868.06;5017429;28;20045;-83
2022/12/04 00:53:34;;;;;;;15.55;9.07;;;;;;;6.25;78.78;96145.28;5053797;28;20464;-83
2022/12/04 00:56:08;;;;;;;15.98;9.40;;;;;;;6.26;78.98;96157.41;5001884;28;20045;-83
2022/12/04 00:58:34;;;;;;;14.70;8.38;;;;;;;5.96;78.42;96110.78;5021431;28;20060;-82
2022/12/04 01:01:08;;;;;;;13.80;8.82;;;;;;;6.14;78.75;96147.63;5020408;28;20722;-84
2022/12/04 01:03:34;;;;;;;14.30;8.48;;;;;;;6.06;79.07;96150.56;5038410;28;20041;-84
2022/12/04 01:06:00;;;;;;;12.55;8.05;;;;;;;6.14;79.29;96150.25;5038514;28;20067;-83
2022/12/04 01:08:25;;;;;;;15.13;8.07;;;;;;;4.83;78.93;95947.34;5038542;28;20100;-81
2022/12/04 01:10:51;;;;;;;13.70;8.88;;;;;;;5.43;78.85;96039.50;5020426;28;20045;-83
2022/12/04 01:13:16;;;;;;;13.90;8.23;;;;;;;5.57;78.83;96074.41;5020693;28;20049;-83
2022/12/04 01:15:46;;;;;;;13.90;8.25;;;;;;;5.56;79.27;96073.59;5038823;28;20045;-84
2022/12/04 01:18:12;;;;;;;13.30;7.82;;;;;;;5.64;78.94;96083.00;5038978;28;20504;-84
2022/12/04 01:20:38;;;;;;;12.35;8.02;;;;;;;6.12;79.01;96140.97;5020454;28;20453;-82
2022/12/04 01:23:03;;;;;;;12.65;7.40;;;;;;;5.21;78.90;96014.69;5038656;28;20041;-84
2022/12/04 01:25:29;;;;;;;14.85;8.23;;;;;;;5.82;79.01;96102.22;5039190;28;20088;-84
2022/12/04 01:27:55;;;;;;;13.63;8.40;;;;;;;5.50;79.46;96071.81;5042830;28;20099;-82
2022/12/04 01:30:20;;;;;;;17.85;10.05;;;;;;;4.95;79.85;96010.53;5025102;28;20047;-84
2022/12/04 01:32:46;;;;;;;15.57;9.35;;;;;;;5.39;80.20;96088.34;5042742;28;20037;-82
2022/12/04 01:35:11;;;;;;;14.70;8.80;;;;;;;5.37;79.52;96057.00;5024075;28;20041;-84
2022/12/04 01:37:37;;;;;;;13.10;7.95;;;;;;;5.26;79.40;96044.59;5024534;28;20542;-82
2022/12/04 01:40:04;;;;;;;13.50;8.25;;;;;;;5.79;79.71;96138.72;5024350;28;20526;-84
2022/12/04 01:42:29;;;;;;;13.85;8.85;;;;;;;5.78;79.60;96140.53;5024218;28;20492;-84
2022/12/04 01:45:33;;;;;;;14.18;8.73;;;;;;;5.89;79.71;96144.28;5042259;28;20125;-83
2022/12/04 01:48:12;;;;;;;13.52;8.48;;;;;;;5.86;79.69;96139.44;5010758;28;20069;-83
2022/12/04 01:50:38;;;;;;;12.05;6.95;;;;;;;5.82;79.17;96131.16;5042568;28;20538;-82
2022/12/04 01:53:04;;;;;;;11.45;7.60;;;;;;;5.40;79.44;96064.44;5042910;28;20041;-83
2022/12/04 01:55:30;;;;;;;13.68;7.68;;;;;;;5.26;79.65;96033.25;5042196;28;20423;-83
2022/12/04 01:57:57;;;;;;;13.73;7.43;;;;;;;5.48;79.58;96068.63;5023888;28;20172;-83
2022/12/04 02:00:23;;;;;;;11.68;7.53;;;;;;;5.25;79.57;96042.97;5023897;28;20057;-84
2022/12/04 02:02:48;;;;;;;13.77;7.72;;;;;;;5.40;79.42;96061.81;5041438;28;20122;-84
2022/12/04 02:05:16;;;;;;;11.93;7.30;;;;;;;5.54;79.12;96078.25;5023647;28;20076;-82
2022/12/04 02:07:46;;;;;;;11.32;7.45;;;;;;;5.85;79.28;96122.03;5042309;28;20063;-83
2022/12/04 02:10:13;;;;;;;12.80;8.00;;;;;;;5.60;79.56;96089.72;5023702;28;20080;-83
2022/12/04 02:12:44;;;;;;;10.98;8.10;;;;;;;5.86;79.05;96123.66;5023374;28;20130;-81
2022/12/04 02:15:33;;;;;;;11.95;6.65;;;;;;;5.18;79.65;96029.09;5023462;28;20138;-82
2022/12/04 02:18:12;;;;;;;13.93;7.20;;;;;;;5.35;79.66;96056.41;5041621;28;20063;-83
2022/12/04 02:20:59;;;;;;;12.15;7.78;;;;;;;5.78;79.53;96114.22;5023349;28;20080;-82
2022/12/04 02:24:23;;;;;;;13.05;7.15;;;;;;;5.50;79.17;96082.34;5041594;28;20048;-82
2022/12/04 02:27:02;;;;;;;10.48;6.88;;;;;;;5.70;79.43;96121.59;4938905;28;20069;-83
2022/12/04 02:29:39;;;;;;;11.00;6.78;;;;;;;4.99;79.92;96001.16;5015214;28;20059;-83
2022/12/04 02:32:29;;;;;;;10.18;6.60;;;;;;;5.77;79.82;96117.88;5042132;28;20041;-78
2022/12/04 02:35:20;;;;;;;11.88;6.28;;;;;;;5.70;79.61;96113.72;5042919;28;20045;-79
2022/12/04 02:37:56;;;;;;;11.20;7.57;;;;;;;5.70;80.12;96111.88;5042485;28;20060;-81
2022/12/04 02:40:26;;;;;;;11.20;7.05;;;;;;;5.48;80.20;96080.97;5040681;28;20080;-81
2022/12/04 02:43:14;;;;;;;11.52;6.57;;;;;;;5.65;80.34;96105.66;5040221;28;20095;-81
2022/12/04 02:45:45;;;;;;;10.25;6.85;;;;;;;5.06;80.12;96004.53;5040959;28;20499;-81
2022/12/04 02:48:15;;;;;;;11.10;6.47;;;;;;;5.75;80.17;96116.47;5040859;28;20479;-81
2022/12/04 02:50:41;;;;;;;11.38;7.45;;;;;;;5.14;79.94;96000.81;5023257;28;20053;-83
2022/12/04 02:53:15;;;;;;;15.77;8.70;;;;;;;5.83;79.80;96113.56;5040631;28;20041;-81
2022/12/04 02:55:50;;;;;;;12.85;7.80;;;;;;;5.75;79.31;96114.66;5040581;28;20067;-81
2022/12/04 02:58:23;;;;;;;10.90;7.03;;;;;;;5.79;79.83;96118.47;5040400;28;20051;-80
2022/12/04 03:00:51;;;;;;;11.23;6.90;;;;;;;4.48;79.44;95909.53;5035831;28;20045;-80
2022/12/04 03:03:24;;;;;;;12.00;7.15;;;;;;;5.49;80.08;96067.59;5040637;28;20037;-81
2022/12/04 03:05:58;;;;;;;9.07;6.25;;;;;;;5.60;80.42;96123.94;5055816;28;20059;-81
2022/12/04 03:08:34;;;;;;;10.20;6.10;;;;;;;4.91;80.22;95993.56;5022718;28;20148;-81
2022/12/04 03:11:01;;;;;;;8.68;6.35;;;;;;;5.15;80.37;96036.59;5038209;28;20041;-80
2022/12/04 03:13:47;;;;;;;11.40;6.00;;;;;;;5.37;79.55;96027.25;5055513;28;20059;-80
2022/12/04 03:16:17;;;;;;;7.75;5.60;;;;;;;4.86;79.70;95961.88;5040397;28;20106;-80
2022/12/04 03:19:17;;;;;;;10.13;6.40;;;;;;;5.77;79.30;96104.72;5055894;28;20045;-81
2022/12/04 03:21:58;;;;;;;9.90;5.95;;;;;;;4.84;79.34;95956.03;5021951;28;20087;-81
2022/12/04 03:24:32;;;;;;;10.32;6.10;;;;;;;5.14;79.51;96006.06;5039459;28;20570;-81
2022/12/04 03:27:12;;;;;;;9.50;5.70;;;;;;;5.67;80.27;96103.59;5022413;28;20033;-81
2022/12/04 03:29:49;;;;;;;7.40;5.53;;;;;;;5.01;80.29;95999.13;5022499;28;20072;-81
2022/12/04 03:32:27;;;;;;;8.52;5.35;;;;;;;5.09;79.54;95990.97;5040233;28;20040;-81
2022/12/04 03:35:11;;;;;;;7.57;5.30;;;;;;;5.74;79.90;96099.88;5021426;28;20048;-81
2022/12/04 03:38:11;;;;;;;8.93;5.32;;;;;;;5.48;80.79;96091.50;5039896;28;20044;-81
2022/12/04 03:40:58;;;;;;;7.35;5.32;;;;;;;5.37;80.61;96054.34;5039539;28;20040;-81
2022/12/04 03:43:30;;;;;;;9.38;5.18;;;;;;;5.64;80.58;96099.59;5021681;28;20037;-81
2022/12/04 03:46:22;;;;;;;10.07;6.00;;;;;;;5.65;80.53;96106.44;5021293;28;20138;-81
2022/12/04 03:49:06;;;;;;;6.95;4.70;;;;;;;5.14;79.94;96025.28;5036514;28;20099;-81
2022/12/04 03:51:37;;;;;;;8.40;5.10;;;;;;;5.10;80.74;96045.16;5039764;28;20057;-81
2022/12/04 03:54:10;;;;;;;6.60;4.53;;;;;;;4.71;80.28;95953.56;5055078;28;20048;-81
2022/12/04 03:56:42;;;;;;;8.98;5.15;;;;;;;4.34;80.03;95913.31;5039207;28;20454;-82
2022/12/04 03:59:17;;;;;;;10.07;5.90;;;;;;;4.72;80.25;95958.59;5039729;28;20044;-81
2022/12/04 04:01:47;;;;;;;6.82;4.80;;;;;;;4.55;80.61;95953.09;5039571;28;20806;-82
2022/12/04 04:04:17;;;;;;;8.98;5.50;;;;;;;5.55;80.29;96098.28;5054408;28;20059;-81
2022/12/04 04:06:51;;;;;;;6.53;4.85;;;;;;;5.14;80.06;96025.28;5039050;28;20888;-81
2022/12/04 04:09:22;;;;;;;8.52;4.97;;;;;;;5.31;80.18;96063.13;5039590;28;20064;-81
2022/12/04 04:11:59;;;;;;;8.10;5.35;;;;;;;5.60;80.03;96101.06;5020782;28;20367;-81
2022/12/04 04:25:57;;;;;;;8.23;5.13;;;;;;;5.58;80.41;96102.28;5038624;28;20663;-80
2022/12/04 04:28:42;;;;;;;8.80;5.32;;;;;;;5.51;80.07;96104.19;5038699;28;20037;-81
2022/12/04 04:31:15;;;;;;;8.45;5.10;;;;;;;4.82;79.67;95979.09;5021015;28;20155;-81
2022/12/04 04:34:12;;;;;;;7.57;4.63;;;;;;;4.01;80.00;95845.34;5020905;28;20883;-81
2022/12/04 04:36:47;;;;;;;14.15;5.40;;;;;;;5.55;80.10;96105.38;5020795;28;20056;-81
2022/12/04 04:39:24;;;;;;;10.02;5.80;;;;;;;5.12;79.93;96048.34;5038801;28;20040;-81
2022/12/04 04:41:59;;;;;;;7.68;5.38;;;;;;;4.88;79.21;95986.13;5020539;28;20033;-81
2022/12/04 04:44:37;;;;;;;7.75;4.47;;;;;;;4.74;79.51;95961.78;5038764;28;20045;-81
2022/12/04 04:47:06;;;;;;;8.20;4.85;;;;;;;5.65;79.82;96106.44;5053080;28;20558;-82
2022/12/04 04:49:34;;;;;;;8.15;4.90;;;;;;;5.23;79.45;96057.34;5020770;28;20577;-81
2022/12/04 04:52:01;;;;;;;8.50;4.97;;;;;;;4.78;79.46;95986.63;5038507;28;20052;-81
2022/12/04 04:54:29;;;;;;;9.85;5.50;;;;;;;4.60;79.23;95949.81;5038821;28;20657;-81
2022/12/04 04:56:55;;;;;;;8.88;5.25;;;;;;;5.56;79.94;96112.25;5038136;28;20045;-81
2022/12/04 04:59:20;;;;;;;8.18;5.40;;;;;;;5.13;79.42;96041.25;5038960;28;20065;-82
2022/12/04 05:01:46;;;;;;;7.55;4.70;;;;;;;5.07;80.03;96056.09;5019696;28;20049;-81
2022/12/04 05:04:12;;;;;;;7.63;5.10;;;;;;;4.74;80.54;96018.78;5038459;28;20041;-81
2022/12/04 05:06:38;;;;;;;9.27;5.78;;;;;;;4.62;80.54;95995.88;5038707;28;20130;-81
2022/12/04 05:09:04;;;;;;;9.32;5.95;;;;;;;4.70;80.36;96025.50;5037874;28;20064;-81
2022/12/04 05:11:30;;;;;;;9.00;5.88;;;;;;;5.27;80.63;96109.28;5039563;28;20041;-81
2022/12/04 05:13:56;;;;;;;10.55;5.95;;;;;;;5.22;80.47;96085.47;5039761;28;20033;-82
2022/12/04 05:16:22;;;;;;;11.82;6.60;;;;;;;4.61;80.23;96002.13;5038503;28;20040;-82
2022/12/04 05:21:33;;;;;;;9.27;5.75;;;;;;;5.49;80.16;96132.56;5038620;28;20052;-82
2022/12/04 05:23:58;;;;;;;9.48;5.72;;;;;;;4.93;80.11;96044.91;5020126;28;20043;-82
2022/12/04 05:26:25;;;;;;;10.20;6.65;;;;;;;5.55;80.03;96137.75;5053262;28;20438;-82
2022/12/04 05:28:50;;;;;;;11.75;6.25;;;;;;;5.57;79.73;96155.97;5037915;28;20048;-82
2022/12/04 05:31:15;;;;;;;12.00;6.68;;;;;;;4.77;79.61;96039.38;5053788;28;20261;-82
2022/12/04 05:33:41;;;;;;;13.52;6.13;;;;;;;4.85;79.99;96039.13;5037795;28;20195;-83
2022/12/04 05:36:09;;;;;;;10.63;6.30;;;;;;;4.82;79.93;96021.94;5020141;28;20044;-83
2022/12/04 05:38:36;;;;;;;10.82;6.60;;;;;;;5.07;80.10;96076.31;5053107;28;20451;-82
2022/12/04 05:41:03;;;;;;;15.57;7.72;;;;;;;4.74;80.10;96029.31;5038121;28;20102;-81
2022/12/04 05:43:29;;;;;;;11.68;6.50;;;;;;;4.59;80.03;96011.25;5019876;28;20047;-81
2022/12/04 05:45:59;;;;;;;14.50;7.38;;;;;;;5.49;80.31;96143.91;5037974;28;20539;-81
2022/12/04 05:48:24;;;;;;;14.13;8.00;;;;;;;5.50;79.82;96153.38;5037192;28;20049;-81
2022/12/04 05:50:50;;;;;;;11.00;7.03;;;;;;;4.76;80.10;96043.03;5045798;28;20060;-82
2022/12/04 05:53:15;;;;;;;11.05;7.22;;;;;;;4.64;80.01;96024.56;5038068;28;20049;-82
2022/12/04 05:55:40;;;;;;;11.20;6.45;;;;;;;4.59;79.79;96014.69;5037882;28;20045;-81
2022/12/04 05:58:06;;;;;;;16.48;7.28;;;;;;;4.48;79.82;95991.75;5037561;28;20152;-81
2022/12/04 06:00:31;;;;;;;11.15;6.88;;;;;;;5.45;80.12;96153.22;5037905;28;20763;-81
2022/12/04 06:02:57;;;;;;;11.30;6.70;;;;;;;4.64;80.60;96020.09;5038304;28;20683;-81
2022/12/04 06:05:22;;;;;;;13.52;7.57;;;;;;;4.38;80.57;95999.31;5019794;28;21164;-81
2022/12/04 06:07:47;;;;;;;13.82;7.35;;;;;;;4.93;80.72;96094.84;5053038;28;20045;-81
2022/12/04 06:10:13;;;;;;;14.82;7.57;;;;;;;2.85;80.52;95746.19;5019834;28;20045;-81
2022/12/04 06:12:38;;;;;;;16.65;8.05;;;;;;;4.85;80.56;96050.44;5022567;28;20169;-81
2022/12/04 06:15:04;;;;;;;34.20;8.30;;;;;;;4.89;80.25;96069.19;5023442;28;20594;-81
2022/12/04 06:17:29;;;;;;;11.32;7.13;;;;;;;5.54;80.15;96149.31;5041905;28;20132;-81
2022/12/04 06:19:55;;;;;;;13.65;7.22;;;;;;;5.36;80.21;96136.13;5041587;28;20072;-81
2022/12/04 06:22:20;;;;;;;12.52;6.93;;;;;;;4.83;80.62;96052.47;5041868;28;20037;-82
2022/12/04 06:24:46;;;;;;;14.23;7.38;;;;;;;5.35;80.25;96139.75;5040002;28;20149;-81
2022/12/04 06:27:11;;;;;;;13.77;7.65;;;;;;;4.88;80.90;96063.13;5039933;28;20045;-82
2022/12/04 06:29:37;;;;;;;12.98;7.22;;;;;;;5.11;80.99;96095.91;5041234;28;20064;-81
2022/12/04 06:32:03;;;;;;;12.80;7.00;;;;;;;5.36;80.42;96122.97;5040907;28;20047;-81
2022/12/04 06:34:28;;;;;;;13.98;6.72;;;;;;;4.87;80.46;96053.66;5023193;28;20052;-81
2022/12/04 06:36:53;;;;;;;13.70;7.47;;;;;;;5.01;80.83;96078.00;5040490;28;20200;-81
2022/12/04 06:39:19;;;;;;;13.07;7.70;;;;;;;5.66;80.75;96160.69;5038454;28;20049;-80
2022/12/04 06:41:47;;;;;;;12.95;7.90;;;;;;;5.75;80.42;96166.50;5041353;28;20049;-83
2022/12/04 06:44:14;;;;;;;13.27;7.78;;;;;;;5.64;79.96;96162.78;5023600;28;20583;-81
2022/12/04 06:46:39;;;;;;;17.38;7.65;;;;;;;5.60;80.07;96151.06;5040433;28;20087;-81
2022/12/04 06:49:05;;;;;;;13.32;8.27;;;;;;;5.47;80.21;96121.44;5040911;28;20527;-81
2022/12/04 06:51:33;;;;;;;16.83;8.45;;;;;;;5.86;80.51;96178.13;5041078;28;20461;-81
2022/12/04 06:53:59;;;;;;;15.50;8.52;;;;;;;5.26;80.47;96105.06;5023458;28;20727;-81
2022/12/04 06:56:28;;;;;;;14.75;7.97;;;;;;;5.39;80.59;96093.59;5040965;28;20431;-81
2022/12/04 06:58:56;;;;;;;18.42;8.65;;;;;;;4.84;80.43;96043.56;5041086;28;20080;-81
2022/12/04 07:01:25;;;;;;;15.07;8.77;;;;;;;4.44;80.57;95964.28;5041084;28;20053;-81
2022/12/04 07:03:51;;;;;;;14.80;8.70;;;;;;;5.82;80.61;96173.28;5041106;28;20777;-81
2022/12/04 07:06:18;;;;;;;15.93;9.63;;;;;;;5.94;80.18;96164.69;5041000;28;20052;-81
2022/12/04 07:08:45;;;;;;;16.67;9.00;;;;;;;5.99;79.49;96165.66;5022520;28;20110;-81
2022/12/04 07:11:12;;;;;;;14.35;9.15;;;;;;;5.09;79.51;96027.75;5039981;28;20049;-81
2022/12/04 07:13:37;;;;;;;16.10;9.65;;;;;;;5.58;79.33;96094.41;5040056;28;20522;-81
2022/12/04 07:16:05;;;;;;;17.38;9.93;;;;;;;5.25;79.30;96034.28;5040861;28;20049;-81
2022/12/04 07:18:32;;;;;;;14.32;8.93;;;;;;;4.94;79.39;96014.16;5051502;28;20514;-81
2022/12/04 07:20:57;;;;;;;16.10;8.82;;;;;;;5.66;79.81;96128.31;5026150;28;20053;-81
2022/12/04 07:23:23;;;;;;;14.50;8.18;;;;;;;4.36;80.53;95922.53;5023920;28;20049;-81
2022/12/04 07:25:48;;;;;;;12.93;8.13;;;;;;;5.24;79.78;96054.50;5021504;28;20095;-81
2022/12/04 07:28:14;;;;;;;15.82;8.85;;;;;;;6.00;79.75;96148.03;5040629;28;20041;-81
2022/12/04 07:30:39;;;;;;;12.65;8.55;;;;;;;5.55;79.34;96063.28;5040712;28;20052;-82
2022/12/04 07:33:04;;;;;;;15.60;8.95;;;;;;;5.53;78.95;96050.34;5032388;28;20742;-82
2022/12/04 07:35:30;;;;;;;13.57;8.07;;;;;;;6.29;79.44;96170.16;5021594;28;20412;-82
2022/12/04 07:37:56;;;;;;;15.25;8.25;;;;;;;5.36;78.86;96020.38;5040631;28;20422;-81
2022/12/04 07:40:21;;;;;;;12.45;8.05;;;;;;;5.95;79.09;96093.38;5040549;28;20056;-81
2022/12/04 07:42:46;;;;;;;15.82;8.25;;;;;;;5.62;78.76;96053.47;5021751;28;20044;-81
2022/12/04 07:45:12;;;;;;;14.93;8.23;;;;;;;6.01;78.45;96099.59;5039825;28;20044;-81
2022/12/04 07:47:37;;;;;;;15.85;7.32;;;;;;;6.39;78.58;96165.16;5021374;28;20063;-82
2022/12/04 07:50:04;;;;;;;15.05;7.20;;;;;;;6.57;78.59;96183.53;5021759;28;20523;-81
2022/12/04 07:52:30;;;;;;;16.25;6.88;;;;;;;6.30;78.13;96135.69;5039411;28;20037;-81
2022/12/04 07:54:56;;;;;;;13.75;6.97;;;;;;;5.89;77.92;96073.19;5020548;28;20633;-80
2022/12/04 07:57:21;;;;;;;15.10;6.85;;;;;;;5.83;78.76;96079.31;5020596;28;20080;-81
2022/12/04 07:59:47;;;;;;;11.70;6.93;;;;;;;5.90;78.30;96068.75;5038794;28;20048;-81
2022/12/04 08:02:12;;;;;;;20.60;7.93;;;;;;;5.72;78.12;96036.13;5038980;28;20183;-81
2022/12/04 08:04:38;;;;;;;14.85;5.57;;;;;;;6.66;77.65;96169.03;5045240;28;20064;-81
2022/12/04 08:07:03;;;;;;;8.70;5.68;;;;;;;6.36;77.81;96137.41;5028410;28;20064;-80
2022/12/04 08:09:29;;;;;;;11.45;6.38;;;;;;;6.27;77.68;96112.41;5039946;28;20858;-80
2022/12/04 08:11:54;;;;;;;9.88;5.80;;;;;;;6.33;76.51;96108.09;5054111;28;20060;-80
2022/12/04 08:14:20;;;;;;;12.07;5.47;;;;;;;6.07;77.06;96067.09;5021182;28;20854;-81
2022/12/04 08:16:48;;;;;;;10.88;5.72;;;;;;;6.25;76.59;96069.69;5021401;28;20110;-81
2022/12/04 08:19:13;;;;;;;9.32;5.70;;;;;;;6.97;75.85;96168.78;5039172;28;20048;-81
2022/12/04 08:21:39;;;;;;;21.00;6.70;;;;;;;6.37;76.23;96088.16;5039198;28;20134;-81
2022/12/04 08:24:04;;;;;;;16.60;6.47;;;;;;;6.58;75.97;96098.19;5038899;28;20072;-81
2022/12/04 08:26:32;;;;;;;12.93;5.88;;;;;;;6.13;75.61;96026.69;5020827;28;20048;-81
2022/12/04 08:29:00;;;;;;;9.02;5.53;;;;;;;7.03;75.34;96168.88;5039658;28;20049;-81
2022/12/04 08:31:27;;;;;;;16.38;5.93;;;;;;;6.26;75.31;96046.75;5038494;28;20053;-81
2022/12/04 08:33:55;;;;;;;9.60;5.65;;;;;;;6.90;75.14;96132.97;5054978;28;20598;-81
2022/12/04 08:36:21;;;;;;;10.18;5.80;;;;;;;6.46;74.43;96063.91;5021049;28;20835;-82
2022/12/04 08:38:47;;;;;;;8.30;5.35;;;;;;;6.38;74.24;96026.53;5039480;28;20052;-81
2022/12/04 08:41:15;;;;;;;13.45;5.72;;;;;;;7.16;74.35;96145.75;5021550;28;20059;-81
2022/12/04 08:43:41;;;;;;;14.57;6.53;;;;;;;7.00;73.90;96111.34;5042962;28;20038;-81
2022/12/04 08:46:11;;;;;;;14.10;6.95;;;;;;;7.34;74.18;96168.59;5014458;28;20099;-82
2022/12/04 08:48:37;;;;;;;13.35;6.18;;;;;;;6.09;73.97;95978.16;5039284;28;20131;-81
2022/12/04 08:51:03;;;;;;;10.88;5.57;;;;;;;6.88;73.37;96077.84;5021240;28;20136;-81
2022/12/04 08:53:29;;;;;;;11.35;5.97;;;;;;;7.30;73.46;96133.94;5038939;28;20188;-80
2022/12/04 08:55:55;;;;;;;13.80;6.88;;;;;;;6.77;73.01;96056.75;5038476;28;20579;-81
2022/12/04 08:58:21;;;;;;;12.63;6.30;;;;;;;7.08;73.04;96103.88;5020889;28;20044;-81
2022/12/04 09:00:47;;;;;;;8.88;5.70;;;;;;;7.46;73.21;96163.31;5038269;28;20423;-81
2022/12/04 09:03:18;;;;;;;12.02;6.07;;;;;;;6.64;73.20;96022.69;5020999;28;20045;-81
2022/12/04 09:05:45;;;;;;;14.73;6.10;;;;;;;7.21;73.29;96118.69;5019795;28;20049;-81
2022/12/04 09:08:15;;;;;;;13.57;6.55;;;;;;;6.25;73.81;95958.25;5038603;28;20041;-81
2022/12/04 09:10:41;;;;;;;10.13;5.95;;;;;;;7.39;74.00;96137.06;5020272;28;20046;-81
2022/12/04 09:13:07;;;;;;;11.40;6.75;;;;;;;6.81;73.57;96029.69;5038330;28;20037;-82
2022/12/04 09:15:38;;;;;;;11.38;6.63;;;;;;;6.85;73.72;96044.03;5020153;28;20041;-81
2022/12/04 09:18:03;;;;;;;13.82;7.75;;;;;;;7.67;73.51;96166.19;5038750;28;20586;-81
2022/12/04 09:20:29;;;;;;;13.38;6.22;;;;;;;6.69;73.53;96007.78;5038767;28;20048;-82
2022/12/04 09:22:54;;;;;;;11.85;6.30;;;;;;;6.91;73.54;96034.41;5020455;28;20049;-81
2022/12/04 09:25:19;;;;;;;10.50;5.80;;;;;;;7.05;73.50;96061.34;5019786;28;20059;-81
2022/12/04 09:27:45;;;;;;;9.90;6.07;;;;;;;6.81;73.60;96037.59;5020319;28;20037;-83
2022/12/04 09:30:11;;;;;;;10.82;6.20;;;;;;;6.90;73.52;96028.31;5036716;28;20041;-81
2022/12/04 09:32:37;;;;;;;11.63;5.85;;;;;;;6.64;73.71;95996.34;5053750;28;20439;-80
2022/12/04 09:35:03;;;;;;;12.55;6.53;;;;;;;7.46;74.18;96106.06;5038276;28;20049;-81
2022/12/04 09:37:29;;;;;;;9.57;6.20;;;;;;;7.06;73.85;96047.91;5038500;28;20055;-81
2022/12/04 09:39:54;;;;;;;12.63;6.45;;;;;;;7.59;73.55;96128.75;5020828;28;20045;-81
2022/12/04 09:43:12;;;;;;;10.95;6.72;;;;;;;7.44;74.58;96128.44;5020516;28;20113;-82
2022/12/04 09:45:52;;;;;;;9.70;6.07;;;;;;;6.93;74.20;96034.97;5032936;28;20045;-81
2022/12/04 09:48:19;;;;;;;11.48;5.93;;;;;;;7.42;74.11;96088.25;5024229;28;20877;-81
2022/12/04 09:50:47;;;;;;;16.52;7.03;;;;;;;7.47;74.18;96105.03;5024057;28;20048;-81
2022/12/04 09:53:18;;;;;;;11.23;6.13;;;;;;;6.85;73.85;95993.94;5023949;28;20040;-81
2022/12/04 09:55:55;;;;;;;12.43;6.20;;;;;;;6.89;73.74;95991.63;5024196;28;20375;-81
2022/12/04 09:58:24;;;;;;;13.15;7.00;;;;;;;7.55;73.90;96099.38;5023551;28;20040;-81
2022/12/04 10:00:51;;;;;;;9.80;6.50;;;;;;;7.01;74.04;96018.81;5024509;28;20048;-82
2022/12/04 10:03:23;;;;;;;12.60;7.40;;;;;;;7.04;73.60;95994.59;5042746;28;20166;-82
2022/12/04 10:06:17;;;;;;;14.00;7.35;;;;;;;7.11;73.58;96011.09;5024123;28;20056;-82
2022/12/04 10:08:54;;;;;;;14.10;7.00;;;;;;;7.25;73.44;96030.09;5007751;28;20136;-82
2022/12/04 10:11:38;;;;;;;15.75;7.70;;;;;;;6.81;73.56;95947.16;5023464;28;20851;-82
2022/12/04 10:14:16;;;;;;;11.02;6.70;;;;;;;7.53;73.76;96074.25;5024047;28;20132;-82
2022/12/04 10:16:47;;;;;;;16.30;8.18;;;;;;;7.44;74.31;96065.09;5041656;28;20149;-82
2022/12/04 10:19:26;;;;;;;;;;;;;;;7.45;73.99;96066.69;5042473;28;20040;-82
2022/12/04 10:22:09;;;;;;;24.25;9.05;;;;;;;7.45;73.99;96061.44;5042919;28;20386;-82
2022/12/04 10:24:43;;;;;;;18.23;8.25;;;;;;;7.36;74.37;96056.50;5042378;28;20049;-82
2022/12/04 10:27:16;;;;;;;12.05;7.30;;;;;;;6.96;73.19;95956.19;5041888;28;20065;-82
2022/12/04 10:29:45;;;;;;;15.60;8.77;;;;;;;6.98;72.97;95955.97;5041804;28;20114;-82
2022/12/04 10:32:25;;;;;;;12.63;7.70;;;;;;;7.54;73.26;96044.19;5024039;28;20056;-82
2022/12/04 10:34:55;;;;;;;15.90;9.52;;;;;;;7.07;73.52;95994.13;5041034;28;20033;-83
2022/12/04 10:37:22;;;;;;;13.77;8.32;;;;;;;7.57;73.05;96057.72;5023363;28;20253;-82
2022/12/04 10:39:56;;;;;;;17.85;9.30;;;;;;;7.63;73.15;96042.78;5041798;28;20111;-82
2022/12/04 10:42:33;;;;;;;16.52;8.95;;;;;;;7.57;72.88;96041.88;5041685;28;20041;-82
2022/12/04 10:44:59;;;;;;;16.25;8.10;;;;;;;7.06;72.86;95933.69;5041297;28;20945;-82
2022/12/04 10:47:25;;;;;;;19.02;8.50;;;;;;;7.15;72.52;95945.50;5041269;28;20083;-82
2022/12/04 10:50:04;;;;;;;19.35;9.65;;;;;;;7.39;71.95;95964.72;5040975;28;20045;-82
2022/12/04 10:52:30;;;;;;;14.82;8.02;;;;;;;7.42;72.20;95972.16;5022581;28;20507;-82
2022/12/04 10:55:01;;;;;;;17.17;8.70;;;;;;;7.28;72.19;95961.06;5022995;28;20047;-82
2022/12/04 10:57:42;;;;;;;13.75;8.25;;;;;;;7.78;71.91;96042.31;5041002;28;20148;-82
2022/12/04 11:00:23;;;;;;;13.90;7.75;;;;;;;7.85;72.00;96032.41;5041125;28;20130;-82
2022/12/04 11:02:50;;;;;;;12.23;7.20;;;;;;;7.61;71.66;96006.06;5022823;28;20519;-82
2022/12/04 11:05:30;;;;;;;12.68;7.78;;;;;;;7.17;71.83;95954.75;5022692;28;20819;-82
2022/12/04 11:07:58;;;;;;;13.27;7.70;;;;;;;6.71;71.74;95865.22;5023109;28;20041;-82
2022/12/04 11:10:41;;;;;;;12.30;7.55;;;;;;;7.45;71.63;95990.97;5040628;28;20053;-82
2022/12/04 11:13:10;;;;;;;12.73;7.28;;;;;;;7.81;72.39;96021.50;5055949;28;20256;-82
2022/12/04 11:15:43;;;;;;;11.05;7.45;;;;;;;6.95;72.13;95886.00;5044307;28;20049;-82
2022/12/04 11:18:16;;;;;;;13.70;7.25;;;;;;;7.90;71.56;96028.00;5033892;28;20053;-82
2022/12/04 11:20:58;;;;;;;10.35;6.28;;;;;;;7.14;71.32;95912.25;5039009;28;20048;-82
2022/12/04 11:23:25;;;;;;;12.45;6.78;;;;;;;7.54;71.27;95979.00;5041267;28;20041;-82
2022/12/04 11:25:54;;;;;;;9.32;6.03;;;;;;;7.05;71.29;95916.28;5040747;28;20053;-82
2022/12/04 11:28:28;;;;;;;13.88;7.38;;;;;;;6.83;70.81;95887.09;5041040;28;20043;-82
2022/12/04 11:30:55;;;;;;;12.77;6.90;;;;;;;6.70;70.77;95867.06;5022880;28;20127;-81
2022/12/04 11:33:29;;;;;;;14.80;7.53;;;;;;;7.45;71.16;95969.06;5041008;28;20033;-82
2022/12/04 11:35:58;;;;;;;9.27;5.70;;;;;;;7.36;70.56;95968.63;5040524;28;20044;-82
2022/12/04 11:38:26;;;;;;;9.98;6.15;;;;;;;7.88;70.91;96034.56;5022444;28;20049;-82
2022/12/04 11:40:54;;;;;;;13.45;7.75;;;;;;;7.91;70.32;96026.19;5040114;28;20041;-82
2022/12/04 11:43:26;;;;;;;11.88;6.90;;;;;;;7.40;70.13;95932.03;5022665;28;20550;-82
2022/12/04 11:46:05;;;;;;;11.30;5.95;;;;;;;7.95;69.82;96030.75;5040779;28;20049;-82
2022/12/04 11:48:41;;;;;;;10.27;6.68;;;;;;;7.97;70.02;96036.59;5022523;28;20116;-81
2022/12/04 11:51:34;;;;;;;11.02;7.53;;;;;;;7.81;69.39;96010.13;5021124;28;20080;-82
2022/12/04 11:54:25;;;;;;;10.68;6.35;;;;;;;7.99;69.89;96045.09;5040735;28;20045;-82
2022/12/04 11:57:04;;;;;;;10.48;5.65;;;;;;;8.03;69.74;96042.75;5039336;28;20076;-82
2022/12/04 11:59:49;;;;;;;10.43;7.05;;;;;;;8.02;70.10;96044.59;5040438;28;20087;-83
2022/12/04 12:02:26;;;;;;;11.38;6.45;;;;;;;7.94;69.80;96037.06;5040884;28;20045;-82
2022/12/04 12:05:19;;;;;;;12.52;7.47;;;;;;;7.61;69.32;95955.91;5041219;28;20083;-82